sensor_id;sensor_type;location;lat;lon;timestamp;P1;durP1;ratioP1;P2;durP2;ratioP2
16179;SDS011;8196;49.428;10.906;2023-08-01T00:00:06;4.55;;;2.45;;
16179;SDS011;8196;49.428;10.906;2023-08-01T00:02:34;4.63;;;2.63;;
16179;SDS011;8196;49.428;10.906;2023-08-01T00:05:01;3.40;;;2.22;;
16179;SDS011;8196;49.428;10.906;2023-08-01T00:07:29;2.78;;;2.25;;
16179;SDS011;8196;49.428;10.906;2023-08-01T00:09:56;2.67;;;2.17;;
16179;SDS011;8196;49.428;10.906;2023-08-01T00:12:23;3.05;;;2.55;;
16179;SDS011;8196;49.428;10.906;2023-08-01T00:14:51;6.20;;;2.63;;
16179;SDS011;8196;49.428;10.906;2023-08-01T00:17:18;6.15;;;2.80;;
16179;SDS011;8196;49.428;10.906;2023-08-01T00:19:45;5.13;;;2.92;;
16179;SDS011;8196;49.428;10.906;2023-08-01T00:22:12;5.30;;;2.80;;
16179;SDS011;8196;49.428;10.906;2023-08-01T00:24:40;5.93;;;2.92;;
16179;SDS011;8196;49.428;10.906;2023-08-01T00:27:07;4.72;;;2.70;;
16179;SDS011;8196;49.428;10.906;2023-08-01T00:29:36;4.25;;;2.80;;
16179;SDS011;8196;49.428;10.906;2023-08-01T00:32:03;3.25;;;2.65;;
16179;SDS011;8196;49.428;10.906;2023-08-01T00:34:31;5.40;;;2.75;;
16179;SDS011;8196;49.428;10.906;2023-08-01T00:36:58;6.25;;;2.92;;
16179;SDS011;8196;49.428;10.906;2023-08-01T00:39:25;4.88;;;2.60;;
16179;SDS011;8196;49.428;10.906;2023-08-01T00:41:53;5.45;;;2.80;;
16179;SDS011;8196;49.428;10.906;2023-08-01T00:44:20;4.18;;;2.75;;
16179;SDS011;8196;49.428;10.906;2023-08-01T00:46:47;3.70;;;2.70;;
16179;SDS011;8196;49.428;10.906;2023-08-01T00:49:14;5.70;;;3.35;;
16179;SDS011;8196;49.428;10.906;2023-08-01T00:51:42;6.95;;;2.58;;
16179;SDS011;8196;49.428;10.906;2023-08-01T00:54:09;3.63;;;2.60;;
16179;SDS011;8196;49.428;10.906;2023-08-01T00:56:36;4.53;;;2.42;;
16179;SDS011;8196;49.428;10.906;2023-08-01T00:59:04;4.82;;;2.58;;
16179;SDS011;8196;49.428;10.906;2023-08-01T01:01:32;5.78;;;3.45;;
16179;SDS011;8196;49.428;10.906;2023-08-01T01:08:54;5.20;;;2.65;;
16179;SDS011;8196;49.428;10.906;2023-08-01T01:11:22;4.18;;;2.63;;
16179;SDS011;8196;49.428;10.906;2023-08-01T01:13:50;4.38;;;2.83;;
16179;SDS011;8196;49.428;10.906;2023-08-01T01:16:19;8.48;;;2.72;;
16179;SDS011;8196;49.428;10.906;2023-08-01T01:18:47;4.15;;;2.65;;
16179;SDS011;8196;49.428;10.906;2023-08-01T01:24:21;3.00;;;2.17;;
16179;SDS011;8196;49.428;10.906;2023-08-01T01:26:48;4.90;;;2.63;;
16179;SDS011;8196;49.428;10.906;2023-08-01T01:29:16;5.38;;;1.88;;
16179;SDS011;8196;49.428;10.906;2023-08-01T01:31:43;2.97;;;1.63;;
16179;SDS011;8196;49.428;10.906;2023-08-01T01:34:10;2.75;;;2.05;;
16179;SDS011;8196;49.428;10.906;2023-08-01T01:36:37;3.65;;;2.53;;
16179;SDS011;8196;49.428;10.906;2023-08-01T01:39:05;3.03;;;1.77;;
16179;SDS011;8196;49.428;10.906;2023-08-01T01:41:32;4.95;;;1.92;;
16179;SDS011;8196;49.428;10.906;2023-08-01T01:43:59;2.78;;;1.85;;
16179;SDS011;8196;49.428;10.906;2023-08-01T01:46:27;4.47;;;1.90;;
16179;SDS011;8196;49.428;10.906;2023-08-01T01:48:54;2.58;;;1.90;;
16179;SDS011;8196;49.428;10.906;2023-08-01T01:51:25;2.58;;;2.13;;
16179;SDS011;8196;49.428;10.906;2023-08-01T01:53:52;1.63;;;0.75;;
16179;SDS011;8196;49.428;10.906;2023-08-01T01:56:19;1.67;;;1.30;;
16179;SDS011;8196;49.428;10.906;2023-08-01T01:58:46;0.20;;;0.20;;
16179;SDS011;8196;49.428;10.906;2023-08-01T02:01:14;0.10;;;0.10;;
16179;SDS011;8196;49.428;10.906;2023-08-01T02:03:41;0.10;;;0.10;;
16179;SDS011;8196;49.428;10.906;2023-08-01T02:06:08;0.10;;;0.10;;
16179;SDS011;8196;49.428;10.906;2023-08-01T02:08:35;0.20;;;0.20;;
16179;SDS011;8196;49.428;10.906;2023-08-01T02:11:02;0.10;;;0.10;;
16179;SDS011;8196;49.428;10.906;2023-08-01T02:13:31;0.10;;;0.10;;
16179;SDS011;8196;49.428;10.906;2023-08-01T02:16:00;0.10;;;0.10;;
16179;SDS011;8196;49.428;10.906;2023-08-01T02:18:27;0.10;;;0.10;;
16179;SDS011;8196;49.428;10.906;2023-08-01T02:20:55;0.30;;;0.30;;
16179;SDS011;8196;49.428;10.906;2023-08-01T02:23:22;0.17;;;0.17;;
16179;SDS011;8196;49.428;10.906;2023-08-01T02:25:49;0.40;;;0.40;;
16179;SDS011;8196;49.428;10.906;2023-08-01T02:28:16;0.10;;;0.10;;
16179;SDS011;8196;49.428;10.906;2023-08-01T02:30:43;0.10;;;0.10;;
16179;SDS011;8196;49.428;10.906;2023-08-01T02:33:10;0.15;;;0.15;;
16179;SDS011;8196;49.428;10.906;2023-08-01T02:35:38;0.00;;;0.00;;
16179;SDS011;8196;49.428;10.906;2023-08-01T02:38:05;0.00;;;0.00;;
16179;SDS011;8196;49.428;10.906;2023-08-01T02:40:32;0.20;;;0.20;;
16179;SDS011;8196;49.428;10.906;2023-08-01T02:42:59;0.20;;;0.20;;
16179;SDS011;8196;49.428;10.906;2023-08-01T02:45:26;0.20;;;0.20;;
16179;SDS011;8196;49.428;10.906;2023-08-01T02:47:53;0.10;;;0.10;;
16179;SDS011;8196;49.428;10.906;2023-08-01T02:50:23;0.25;;;0.25;;
16179;SDS011;8196;49.428;10.906;2023-08-01T02:52:50;0.10;;;0.10;;
16179;SDS011;8196;49.428;10.906;2023-08-01T02:55:17;0.10;;;0.10;;
16179;SDS011;8196;49.428;10.906;2023-08-01T02:57:44;0.10;;;0.10;;
16179;SDS011;8196;49.428;10.906;2023-08-01T03:00:12;0.52;;;0.52;;
16179;SDS011;8196;49.428;10.906;2023-08-01T03:02:40;0.32;;;0.32;;
16179;SDS011;8196;49.428;10.906;2023-08-01T03:05:07;0.32;;;0.32;;
16179;SDS011;8196;49.428;10.906;2023-08-01T03:07:35;0.10;;;0.10;;
16179;SDS011;8196;49.428;10.906;2023-08-01T03:10:02;0.47;;;0.47;;
16179;SDS011;8196;49.428;10.906;2023-08-01T03:12:29;0.55;;;0.55;;
16179;SDS011;8196;49.428;10.906;2023-08-01T03:14:57;0.10;;;0.10;;
16179;SDS011;8196;49.428;10.906;2023-08-01T03:17:24;0.28;;;0.28;;
16179;SDS011;8196;49.428;10.906;2023-08-01T03:19:51;0.20;;;0.20;;
16179;SDS011;8196;49.428;10.906;2023-08-01T03:22:18;0.10;;;0.10;;
16179;SDS011;8196;49.428;10.906;2023-08-01T03:24:46;0.65;;;0.65;;
16179;SDS011;8196;49.428;10.906;2023-08-01T03:27:13;0.10;;;0.10;;
16179;SDS011;8196;49.428;10.906;2023-08-01T03:29:40;0.50;;;0.50;;
16179;SDS011;8196;49.428;10.906;2023-08-01T03:32:07;0.10;;;0.10;;
16179;SDS011;8196;49.428;10.906;2023-08-01T03:34:34;0.10;;;0.10;;
16179;SDS011;8196;49.428;10.906;2023-08-01T03:37:02;0.20;;;0.20;;
16179;SDS011;8196;49.428;10.906;2023-08-01T03:39:30;0.13;;;0.13;;
16179;SDS011;8196;49.428;10.906;2023-08-01T03:41:57;0.10;;;0.10;;
16179;SDS011;8196;49.428;10.906;2023-08-01T03:44:24;0.10;;;0.10;;
16179;SDS011;8196;49.428;10.906;2023-08-01T03:46:51;0.20;;;0.20;;
16179;SDS011;8196;49.428;10.906;2023-08-01T03:49:18;0.15;;;0.15;;
16179;SDS011;8196;49.428;10.906;2023-08-01T03:51:45;0.13;;;0.13;;
16179;SDS011;8196;49.428;10.906;2023-08-01T03:54:12;0.40;;;0.40;;
16179;SDS011;8196;49.428;10.906;2023-08-01T03:56:40;0.20;;;0.20;;
16179;SDS011;8196;49.428;10.906;2023-08-01T03:59:11;0.10;;;0.10;;
16179;SDS011;8196;49.428;10.906;2023-08-01T04:01:38;0.10;;;0.10;;
16179;SDS011;8196;49.428;10.906;2023-08-01T04:04:06;0.25;;;0.25;;
16179;SDS011;8196;49.428;10.906;2023-08-01T04:06:33;0.20;;;0.20;;
16179;SDS011;8196;49.428;10.906;2023-08-01T04:09:00;0.10;;;0.10;;
16179;SDS011;8196;49.428;10.906;2023-08-01T04:11:27;0.10;;;0.10;;
16179;SDS011;8196;49.428;10.906;2023-08-01T04:13:56;0.10;;;0.10;;
16179;SDS011;8196;49.428;10.906;2023-08-01T04:16:23;0.57;;;0.40;;
16179;SDS011;8196;49.428;10.906;2023-08-01T04:18:50;0.10;;;0.10;;
16179;SDS011;8196;49.428;10.906;2023-08-01T04:21:17;0.10;;;0.10;;
16179;SDS011;8196;49.428;10.906;2023-08-01T04:23:45;0.10;;;0.10;;
16179;SDS011;8196;49.428;10.906;2023-08-01T04:26:12;1.17;;;0.80;;
16179;SDS011;8196;49.428;10.906;2023-08-01T04:28:39;0.20;;;0.20;;
16179;SDS011;8196;49.428;10.906;2023-08-01T04:31:06;0.13;;;0.13;;
16179;SDS011;8196;49.428;10.906;2023-08-01T04:33:33;1.00;;;1.00;;
16179;SDS011;8196;49.428;10.906;2023-08-01T04:36:00;0.10;;;0.10;;
16179;SDS011;8196;49.428;10.906;2023-08-01T04:38:28;0.17;;;0.15;;
16179;SDS011;8196;49.428;10.906;2023-08-01T04:40:55;0.20;;;0.20;;
16179;SDS011;8196;49.428;10.906;2023-08-01T04:43:22;0.57;;;0.57;;
16179;SDS011;8196;49.428;10.906;2023-08-01T04:45:49;0.20;;;0.20;;
16179;SDS011;8196;49.428;10.906;2023-08-01T04:48:16;0.20;;;0.20;;
16179;SDS011;8196;49.428;10.906;2023-08-01T04:50:44;0.60;;;0.60;;
16179;SDS011;8196;49.428;10.906;2023-08-01T04:53:11;0.00;;;0.00;;
16179;SDS011;8196;49.428;10.906;2023-08-01T04:55:39;0.10;;;0.10;;
16179;SDS011;8196;49.428;10.906;2023-08-01T04:58:06;0.10;;;0.10;;
16179;SDS011;8196;49.428;10.906;2023-08-01T05:00:37;0.10;;;0.10;;
16179;SDS011;8196;49.428;10.906;2023-08-01T05:03:04;0.10;;;0.10;;
16179;SDS011;8196;49.428;10.906;2023-08-01T05:05:31;0.88;;;0.43;;
16179;SDS011;8196;49.428;10.906;2023-08-01T05:07:59;0.30;;;0.30;;
16179;SDS011;8196;49.428;10.906;2023-08-01T05:10:26;0.30;;;0.30;;
16179;SDS011;8196;49.428;10.906;2023-08-01T05:12:53;0.10;;;0.10;;
16179;SDS011;8196;49.428;10.906;2023-08-01T05:15:20;0.25;;;0.25;;
16179;SDS011;8196;49.428;10.906;2023-08-01T05:17:47;0.10;;;0.10;;
16179;SDS011;8196;49.428;10.906;2023-08-01T05:20:14;0.10;;;0.10;;
16179;SDS011;8196;49.428;10.906;2023-08-01T05:22:42;0.22;;;0.22;;
16179;SDS011;8196;49.428;10.906;2023-08-01T05:25:09;0.10;;;0.10;;
16179;SDS011;8196;49.428;10.906;2023-08-01T05:27:36;0.10;;;0.10;;
16179;SDS011;8196;49.428;10.906;2023-08-01T05:30:04;0.15;;;0.15;;
16179;SDS011;8196;49.428;10.906;2023-08-01T05:32:31;0.13;;;0.13;;
16179;SDS011;8196;49.428;10.906;2023-08-01T05:34:58;0.15;;;0.15;;
16179;SDS011;8196;49.428;10.906;2023-08-01T05:37:25;0.30;;;0.30;;
16179;SDS011;8196;49.428;10.906;2023-08-01T05:39:52;0.10;;;0.10;;
16179;SDS011;8196;49.428;10.906;2023-08-01T05:42:19;0.20;;;0.20;;
16179;SDS011;8196;49.428;10.906;2023-08-01T05:44:47;0.03;;;0.03;;
16179;SDS011;8196;49.428;10.906;2023-08-01T05:47:14;1.00;;;1.00;;
16179;SDS011;8196;49.428;10.906;2023-08-01T05:49:41;0.15;;;0.15;;
16179;SDS011;8196;49.428;10.906;2023-08-01T05:52:08;0.75;;;0.75;;
16179;SDS011;8196;49.428;10.906;2023-08-01T05:54:35;0.10;;;0.10;;
16179;SDS011;8196;49.428;10.906;2023-08-01T05:57:02;0.10;;;0.10;;
16179;SDS011;8196;49.428;10.906;2023-08-01T05:59:30;0.10;;;0.10;;
16179;SDS011;8196;49.428;10.906;2023-08-01T06:01:57;0.20;;;0.20;;
16179;SDS011;8196;49.428;10.906;2023-08-01T06:04:24;0.20;;;0.20;;
16179;SDS011;8196;49.428;10.906;2023-08-01T06:06:51;0.10;;;0.10;;
16179;SDS011;8196;49.428;10.906;2023-08-01T06:09:19;0.25;;;0.25;;
16179;SDS011;8196;49.428;10.906;2023-08-01T06:11:49;2.80;;;1.17;;
16179;SDS011;8196;49.428;10.906;2023-08-01T06:14:17;0.10;;;0.10;;
16179;SDS011;8196;49.428;10.906;2023-08-01T06:16:44;0.10;;;0.10;;
16179;SDS011;8196;49.428;10.906;2023-08-01T06:19:11;0.10;;;0.10;;
16179;SDS011;8196;49.428;10.906;2023-08-01T06:21:38;0.10;;;0.10;;
16179;SDS011;8196;49.428;10.906;2023-08-01T06:24:05;0.10;;;0.10;;
16179;SDS011;8196;49.428;10.906;2023-08-01T06:26:34;0.10;;;0.10;;
16179;SDS011;8196;49.428;10.906;2023-08-01T06:29:02;0.10;;;0.10;;
16179;SDS011;8196;49.428;10.906;2023-08-01T06:31:29;0.40;;;0.40;;
16179;SDS011;8196;49.428;10.906;2023-08-01T06:33:56;0.10;;;0.10;;
16179;SDS011;8196;49.428;10.906;2023-08-01T06:36:23;0.17;;;0.17;;
16179;SDS011;8196;49.428;10.906;2023-08-01T06:38:50;0.00;;;0.00;;
16179;SDS011;8196;49.428;10.906;2023-08-01T06:41:17;0.10;;;0.10;;
16179;SDS011;8196;49.428;10.906;2023-08-01T06:43:45;0.55;;;0.55;;
16179;SDS011;8196;49.428;10.906;2023-08-01T06:46:12;0.20;;;0.20;;
16179;SDS011;8196;49.428;10.906;2023-08-01T06:48:39;0.10;;;0.10;;
16179;SDS011;8196;49.428;10.906;2023-08-01T06:51:06;0.10;;;0.10;;
16179;SDS011;8196;49.428;10.906;2023-08-01T06:53:33;0.28;;;0.28;;
16179;SDS011;8196;49.428;10.906;2023-08-01T06:56:00;0.10;;;0.10;;
16179;SDS011;8196;49.428;10.906;2023-08-01T06:58:27;0.10;;;0.10;;
16179;SDS011;8196;49.428;10.906;2023-08-01T07:00:54;0.10;;;0.10;;
16179;SDS011;8196;49.428;10.906;2023-08-01T07:03:22;0.10;;;0.10;;
16179;SDS011;8196;49.428;10.906;2023-08-01T07:05:49;0.10;;;0.10;;
16179;SDS011;8196;49.428;10.906;2023-08-01T07:08:18;0.30;;;0.28;;
16179;SDS011;8196;49.428;10.906;2023-08-01T07:10:45;0.10;;;0.10;;
16179;SDS011;8196;49.428;10.906;2023-08-01T07:13:13;0.10;;;0.10;;
16179;SDS011;8196;49.428;10.906;2023-08-01T07:15:41;0.10;;;0.10;;
16179;SDS011;8196;49.428;10.906;2023-08-01T07:18:08;0.25;;;0.25;;
16179;SDS011;8196;49.428;10.906;2023-08-01T07:20:35;0.20;;;0.20;;
16179;SDS011;8196;49.428;10.906;2023-08-01T07:23:02;0.43;;;0.22;;
16179;SDS011;8196;49.428;10.906;2023-08-01T07:25:29;0.10;;;0.10;;
16179;SDS011;8196;49.428;10.906;2023-08-01T07:27:56;0.10;;;0.10;;
16179;SDS011;8196;49.428;10.906;2023-08-01T07:30:24;0.10;;;0.10;;
16179;SDS011;8196;49.428;10.906;2023-08-01T07:32:51;0.10;;;0.10;;
16179;SDS011;8196;49.428;10.906;2023-08-01T07:35:18;0.20;;;0.20;;
16179;SDS011;8196;49.428;10.906;2023-08-01T07:37:45;0.00;;;0.00;;
16179;SDS011;8196;49.428;10.906;2023-08-01T07:40:12;0.00;;;0.00;;
16179;SDS011;8196;49.428;10.906;2023-08-01T07:42:39;0.10;;;0.10;;
16179;SDS011;8196;49.428;10.906;2023-08-01T07:45:07;0.00;;;0.00;;
16179;SDS011;8196;49.428;10.906;2023-08-01T07:47:34;0.10;;;0.10;;
16179;SDS011;8196;49.428;10.906;2023-08-01T07:50:01;0.60;;;0.40;;
16179;SDS011;8196;49.428;10.906;2023-08-01T07:52:28;0.20;;;0.20;;
16179;SDS011;8196;49.428;10.906;2023-08-01T07:54:55;0.20;;;0.20;;
16179;SDS011;8196;49.428;10.906;2023-08-01T07:57:24;0.10;;;0.10;;
16179;SDS011;8196;49.428;10.906;2023-08-01T07:59:51;0.30;;;0.30;;
16179;SDS011;8196;49.428;10.906;2023-08-01T08:02:19;0.10;;;0.10;;
16179;SDS011;8196;49.428;10.906;2023-08-01T08:04:46;0.00;;;0.00;;
16179;SDS011;8196;49.428;10.906;2023-08-01T08:07:13;0.13;;;0.13;;
16179;SDS011;8196;49.428;10.906;2023-08-01T08:09:40;0.20;;;0.20;;
16179;SDS011;8196;49.428;10.906;2023-08-01T08:12:07;0.10;;;0.10;;
16179;SDS011;8196;49.428;10.906;2023-08-01T08:14:35;0.17;;;0.17;;
16179;SDS011;8196;49.428;10.906;2023-08-01T08:17:02;0.05;;;0.05;;
16179;SDS011;8196;49.428;10.906;2023-08-01T08:19:29;0.20;;;0.20;;
16179;SDS011;8196;49.428;10.906;2023-08-01T08:21:56;0.15;;;0.15;;
16179;SDS011;8196;49.428;10.906;2023-08-01T08:24:23;0.30;;;0.30;;
16179;SDS011;8196;49.428;10.906;2023-08-01T08:26:51;0.10;;;0.10;;
16179;SDS011;8196;49.428;10.906;2023-08-01T08:29:18;0.10;;;0.10;;
16179;SDS011;8196;49.428;10.906;2023-08-01T08:31:45;0.10;;;0.10;;
16179;SDS011;8196;49.428;10.906;2023-08-01T08:34:14;0.60;;;0.60;;
16179;SDS011;8196;49.428;10.906;2023-08-01T08:36:42;0.03;;;0.03;;
16179;SDS011;8196;49.428;10.906;2023-08-01T08:39:09;0.50;;;0.50;;
16179;SDS011;8196;49.428;10.906;2023-08-01T08:41:39;0.10;;;0.10;;
16179;SDS011;8196;49.428;10.906;2023-08-01T08:44:09;0.00;;;0.00;;
16179;SDS011;8196;49.428;10.906;2023-08-01T08:46:41;0.80;;;0.40;;
16179;SDS011;8196;49.428;10.906;2023-08-01T08:49:11;0.20;;;0.20;;
16179;SDS011;8196;49.428;10.906;2023-08-01T08:51:41;0.10;;;0.10;;
16179;SDS011;8196;49.428;10.906;2023-08-01T08:54:09;0.60;;;0.30;;
16179;SDS011;8196;49.428;10.906;2023-08-01T08:56:37;0.30;;;0.30;;
16179;SDS011;8196;49.428;10.906;2023-08-01T08:59:07;0.10;;;0.10;;
16179;SDS011;8196;49.428;10.906;2023-08-01T09:01:36;0.08;;;0.08;;
16179;SDS011;8196;49.428;10.906;2023-08-01T09:04:04;0.40;;;0.40;;
16179;SDS011;8196;49.428;10.906;2023-08-01T09:06:34;0.85;;;0.85;;
16179;SDS011;8196;49.428;10.906;2023-08-01T09:09:02;0.20;;;0.20;;
16179;SDS011;8196;49.428;10.906;2023-08-01T09:11:46;0.10;;;0.10;;
16179;SDS011;8196;49.428;10.906;2023-08-01T09:14:15;0.17;;;0.17;;
16179;SDS011;8196;49.428;10.906;2023-08-01T09:16:43;0.10;;;0.10;;
16179;SDS011;8196;49.428;10.906;2023-08-01T09:19:11;0.10;;;0.10;;
16179;SDS011;8196;49.428;10.906;2023-08-01T09:21:39;3.80;;;1.40;;
16179;SDS011;8196;49.428;10.906;2023-08-01T09:24:22;0.40;;;0.40;;
16179;SDS011;8196;49.428;10.906;2023-08-01T09:26:49;0.10;;;0.10;;
16179;SDS011;8196;49.428;10.906;2023-08-01T09:29:16;0.20;;;0.20;;
16179;SDS011;8196;49.428;10.906;2023-08-01T09:31:44;0.55;;;0.55;;
16179;SDS011;8196;49.428;10.906;2023-08-01T09:36:45;0.20;;;0.20;;
16179;SDS011;8196;49.428;10.906;2023-08-01T09:39:16;0.30;;;0.13;;
16179;SDS011;8196;49.428;10.906;2023-08-01T09:41:44;0.10;;;0.10;;
16179;SDS011;8196;49.428;10.906;2023-08-01T09:44:11;0.10;;;0.10;;
16179;SDS011;8196;49.428;10.906;2023-08-01T09:46:39;0.10;;;0.10;;
16179;SDS011;8196;49.428;10.906;2023-08-01T09:49:10;0.20;;;0.20;;
16179;SDS011;8196;49.428;10.906;2023-08-01T09:51:53;0.20;;;0.20;;
16179;SDS011;8196;49.428;10.906;2023-08-01T09:54:20;0.70;;;0.10;;
16179;SDS011;8196;49.428;10.906;2023-08-01T09:56:48;0.10;;;0.10;;
16179;SDS011;8196;49.428;10.906;2023-08-01T09:59:18;0.50;;;0.30;;
16179;SDS011;8196;49.428;10.906;2023-08-01T10:01:47;0.15;;;0.15;;
16179;SDS011;8196;49.428;10.906;2023-08-01T10:04:18;0.10;;;0.10;;
16179;SDS011;8196;49.428;10.906;2023-08-01T10:06:46;0.10;;;0.10;;
16179;SDS011;8196;49.428;10.906;2023-08-01T10:09:13;1.20;;;0.85;;
16179;SDS011;8196;49.428;10.906;2023-08-01T10:11:40;0.10;;;0.10;;
16179;SDS011;8196;49.428;10.906;2023-08-01T10:14:08;0.10;;;0.10;;
16179;SDS011;8196;49.428;10.906;2023-08-01T10:16:36;0.30;;;0.30;;
16179;SDS011;8196;49.428;10.906;2023-08-01T10:19:05;0.10;;;0.10;;
16179;SDS011;8196;49.428;10.906;2023-08-01T10:21:34;0.50;;;0.50;;
16179;SDS011;8196;49.428;10.906;2023-08-01T10:24:02;0.10;;;0.10;;
16179;SDS011;8196;49.428;10.906;2023-08-01T10:26:29;0.10;;;0.10;;
16179;SDS011;8196;49.428;10.906;2023-08-01T10:28:57;0.30;;;0.30;;
16179;SDS011;8196;49.428;10.906;2023-08-01T10:31:26;0.10;;;0.10;;
16179;SDS011;8196;49.428;10.906;2023-08-01T10:34:02;0.10;;;0.10;;
16179;SDS011;8196;49.428;10.906;2023-08-01T10:36:30;0.30;;;0.30;;
16179;SDS011;8196;49.428;10.906;2023-08-01T10:38:59;0.10;;;0.10;;
16179;SDS011;8196;49.428;10.906;2023-08-01T10:44:10;0.60;;;0.60;;
16179;SDS011;8196;49.428;10.906;2023-08-01T10:46:55;0.10;;;0.10;;
16179;SDS011;8196;49.428;10.906;2023-08-01T10:52:21;0.20;;;0.13;;
16179;SDS011;8196;49.428;10.906;2023-08-01T10:54:56;0.10;;;0.10;;
16179;SDS011;8196;49.428;10.906;2023-08-01T10:57:29;0.32;;;0.32;;
16179;SDS011;8196;49.428;10.906;2023-08-01T10:59:57;0.10;;;0.10;;
16179;SDS011;8196;49.428;10.906;2023-08-01T11:02:25;0.10;;;0.10;;
16179;SDS011;8196;49.428;10.906;2023-08-01T11:04:54;0.20;;;0.20;;
16179;SDS011;8196;49.428;10.906;2023-08-01T11:07:23;0.17;;;0.17;;
16179;SDS011;8196;49.428;10.906;2023-08-01T11:09:50;0.20;;;0.20;;
16179;SDS011;8196;49.428;10.906;2023-08-01T11:12:27;0.10;;;0.10;;
16179;SDS011;8196;49.428;10.906;2023-08-01T11:14:58;0.10;;;0.10;;
16179;SDS011;8196;49.428;10.906;2023-08-01T11:17:28;0.10;;;0.10;;
16179;SDS011;8196;49.428;10.906;2023-08-01T11:20:03;0.20;;;0.20;;
16179;SDS011;8196;49.428;10.906;2023-08-01T11:22:31;0.10;;;0.10;;
16179;SDS011;8196;49.428;10.906;2023-08-01T11:24:58;0.20;;;0.20;;
16179;SDS011;8196;49.428;10.906;2023-08-01T11:27:26;0.20;;;0.20;;
16179;SDS011;8196;49.428;10.906;2023-08-01T11:29:53;0.10;;;0.10;;
16179;SDS011;8196;49.428;10.906;2023-08-01T11:32:21;0.10;;;0.10;;
16179;SDS011;8196;49.428;10.906;2023-08-01T11:34:49;0.20;;;0.20;;
16179;SDS011;8196;49.428;10.906;2023-08-01T11:37:18;0.10;;;0.10;;
16179;SDS011;8196;49.428;10.906;2023-08-01T11:39:46;0.13;;;0.13;;
16179;SDS011;8196;49.428;10.906;2023-08-01T11:42:16;0.10;;;0.10;;
16179;SDS011;8196;49.428;10.906;2023-08-01T11:44:43;0.17;;;0.17;;
16179;SDS011;8196;49.428;10.906;2023-08-01T11:47:14;0.20;;;0.20;;
16179;SDS011;8196;49.428;10.906;2023-08-01T11:49:46;0.10;;;0.10;;
16179;SDS011;8196;49.428;10.906;2023-08-01T11:52:28;0.10;;;0.10;;
16179;SDS011;8196;49.428;10.906;2023-08-01T11:54:57;0.10;;;0.10;;
16179;SDS011;8196;49.428;10.906;2023-08-01T11:57:24;0.10;;;0.10;;
16179;SDS011;8196;49.428;10.906;2023-08-01T11:59:54;0.10;;;0.10;;
16179;SDS011;8196;49.428;10.906;2023-08-01T12:02:25;0.00;;;0.00;;
16179;SDS011;8196;49.428;10.906;2023-08-01T12:04:53;0.10;;;0.10;;
16179;SDS011;8196;49.428;10.906;2023-08-01T12:07:21;0.03;;;0.03;;
16179;SDS011;8196;49.428;10.906;2023-08-01T12:10:03;0.10;;;0.10;;
16179;SDS011;8196;49.428;10.906;2023-08-01T12:12:31;0.10;;;0.10;;
16179;SDS011;8196;49.428;10.906;2023-08-01T12:14:59;0.10;;;0.10;;
16179;SDS011;8196;49.428;10.906;2023-08-01T12:17:26;0.10;;;0.10;;
16179;SDS011;8196;49.428;10.906;2023-08-01T12:19:53;0.10;;;0.10;;
16179;SDS011;8196;49.428;10.906;2023-08-01T12:22:20;0.20;;;0.20;;
16179;SDS011;8196;49.428;10.906;2023-08-01T12:24:47;0.10;;;0.10;;
16179;SDS011;8196;49.428;10.906;2023-08-01T12:27:14;0.10;;;0.10;;
16179;SDS011;8196;49.428;10.906;2023-08-01T12:29:41;0.50;;;0.30;;
16179;SDS011;8196;49.428;10.906;2023-08-01T12:32:08;0.20;;;0.20;;
16179;SDS011;8196;49.428;10.906;2023-08-01T12:34:35;0.35;;;0.35;;
16179;SDS011;8196;49.428;10.906;2023-08-01T12:37:03;0.45;;;0.45;;
16179;SDS011;8196;49.428;10.906;2023-08-01T12:39:30;0.30;;;0.30;;
16179;SDS011;8196;49.428;10.906;2023-08-01T12:41:57;0.40;;;0.40;;
16179;SDS011;8196;49.428;10.906;2023-08-01T12:44:24;0.47;;;0.47;;
16179;SDS011;8196;49.428;10.906;2023-08-01T12:46:51;2.85;;;0.60;;
16179;SDS011;8196;49.428;10.906;2023-08-01T12:49:18;0.32;;;0.30;;
16179;SDS011;8196;49.428;10.906;2023-08-01T12:51:46;0.30;;;0.30;;
16179;SDS011;8196;49.428;10.906;2023-08-01T12:54:16;0.60;;;0.45;;
16179;SDS011;8196;49.428;10.906;2023-08-01T12:56:44;0.43;;;0.43;;
16179;SDS011;8196;49.428;10.906;2023-08-01T12:59:12;0.57;;;0.40;;
16179;SDS011;8196;49.428;10.906;2023-08-01T13:01:39;0.95;;;0.40;;
16179;SDS011;8196;49.428;10.906;2023-08-01T13:04:06;1.10;;;0.47;;
16179;SDS011;8196;49.428;10.906;2023-08-01T13:06:33;1.38;;;0.50;;
16179;SDS011;8196;49.428;10.906;2023-08-01T13:09:00;0.67;;;0.67;;
16179;SDS011;8196;49.428;10.906;2023-08-01T13:11:28;0.47;;;0.47;;
16179;SDS011;8196;49.428;10.906;2023-08-01T13:13:55;0.32;;;0.32;;
16179;SDS011;8196;49.428;10.906;2023-08-01T13:16:22;0.82;;;0.70;;
16179;SDS011;8196;49.428;10.906;2023-08-01T13:18:49;0.88;;;0.68;;
16179;SDS011;8196;49.428;10.906;2023-08-01T13:21:16;0.70;;;0.60;;
16179;SDS011;8196;49.428;10.906;2023-08-01T13:23:44;0.57;;;0.57;;
16179;SDS011;8196;49.428;10.906;2023-08-01T13:26:11;0.82;;;0.52;;
16179;SDS011;8196;49.428;10.906;2023-08-01T13:28:38;2.67;;;0.80;;
16179;SDS011;8196;49.428;10.906;2023-08-01T13:31:05;0.73;;;0.70;;
16179;SDS011;8196;49.428;10.906;2023-08-01T13:33:32;1.10;;;0.68;;
16179;SDS011;8196;49.428;10.906;2023-08-01T13:36:00;1.00;;;0.80;;
16179;SDS011;8196;49.428;10.906;2023-08-01T13:38:29;0.68;;;0.60;;
16179;SDS011;8196;49.428;10.906;2023-08-01T13:40:59;1.90;;;0.67;;
16179;SDS011;8196;49.428;10.906;2023-08-01T13:43:34;1.15;;;0.73;;
16179;SDS011;8196;49.428;10.906;2023-08-01T13:46:07;1.42;;;0.63;;
16179;SDS011;8196;49.428;10.906;2023-08-01T13:48:38;1.70;;;0.93;;
16179;SDS011;8196;49.428;10.906;2023-08-01T13:51:05;1.80;;;0.90;;
16179;SDS011;8196;49.428;10.906;2023-08-01T13:53:32;0.00;;;0.00;;
16179;SDS011;8196;49.428;10.906;2023-08-01T13:56:00;0.10;;;0.10;;
16179;SDS011;8196;49.428;10.906;2023-08-01T13:58:27;0.00;;;0.00;;
16179;SDS011;8196;49.428;10.906;2023-08-01T14:00:54;0.10;;;0.10;;
16179;SDS011;8196;49.428;10.906;2023-08-01T14:03:21;0.10;;;0.10;;
16179;SDS011;8196;49.428;10.906;2023-08-01T14:05:48;0.00;;;0.00;;
16179;SDS011;8196;49.428;10.906;2023-08-01T14:08:16;0.00;;;0.00;;
16179;SDS011;8196;49.428;10.906;2023-08-01T14:10:43;0.08;;;0.08;;
16179;SDS011;8196;49.428;10.906;2023-08-01T14:13:10;0.10;;;0.10;;
16179;SDS011;8196;49.428;10.906;2023-08-01T14:15:37;0.10;;;0.10;;
16179;SDS011;8196;49.428;10.906;2023-08-01T14:18:04;0.00;;;0.00;;
16179;SDS011;8196;49.428;10.906;2023-08-01T14:20:31;0.00;;;0.00;;
16179;SDS011;8196;49.428;10.906;2023-08-01T14:22:59;0.10;;;0.10;;
16179;SDS011;8196;49.428;10.906;2023-08-01T14:25:26;0.20;;;0.20;;
16179;SDS011;8196;49.428;10.906;2023-08-01T14:27:56;0.10;;;0.10;;
16179;SDS011;8196;49.428;10.906;2023-08-01T14:30:23;0.10;;;0.10;;
16179;SDS011;8196;49.428;10.906;2023-08-01T14:32:51;0.10;;;0.10;;
16179;SDS011;8196;49.428;10.906;2023-08-01T14:35:18;0.10;;;0.10;;
16179;SDS011;8196;49.428;10.906;2023-08-01T14:37:45;0.10;;;0.10;;
16179;SDS011;8196;49.428;10.906;2023-08-01T14:40:14;0.10;;;0.10;;
16179;SDS011;8196;49.428;10.906;2023-08-01T14:42:42;0.10;;;0.10;;
16179;SDS011;8196;49.428;10.906;2023-08-01T14:45:09;0.10;;;0.10;;
16179;SDS011;8196;49.428;10.906;2023-08-01T14:47:38;0.10;;;0.10;;
16179;SDS011;8196;49.428;10.906;2023-08-01T14:50:06;0.10;;;0.10;;
16179;SDS011;8196;49.428;10.906;2023-08-01T14:52:33;0.10;;;0.10;;
16179;SDS011;8196;49.428;10.906;2023-08-01T14:55:00;0.20;;;0.20;;
16179;SDS011;8196;49.428;10.906;2023-08-01T14:57:27;0.10;;;0.10;;
16179;SDS011;8196;49.428;10.906;2023-08-01T14:59:55;0.10;;;0.10;;
16179;SDS011;8196;49.428;10.906;2023-08-01T15:02:22;0.10;;;0.10;;
16179;SDS011;8196;49.428;10.906;2023-08-01T15:04:51;0.30;;;0.30;;
16179;SDS011;8196;49.428;10.906;2023-08-01T15:07:18;0.20;;;0.20;;